Airfield :







YOU CAN JOIN US ON...

 
LOGIN :

Register | Disclaimer

   EN    FR    IT 

 









Legend :    VFR   Marginal VFR   IFR   Intensive IFR   Very Intensive IFR
Visi :
Ceiling :
>= 8 km
>= 3000ft
5 to 8 km
1000 to 3000 ft
1500m to 5 km
500 to 1000 ft
800 to 1500m
200 to 500 ft
< 800m
< 200 ft
Symbols :   Thunderstorms  Fog  Heavy snow  Heavy precipitations  Wind > 20 kt






- Airport Elevation : 92 ft
- IATA code : YZX


CYZX - CFB Greenwood

CURRENT METAR :
  • 180200Z 25005KT 15SM FEW074 15/07 A2992 RMK AC1 SLP132

EXPIRED METARs :
  • 180100Z 25008KT 15SM FEW080 16/06 A2991 RMK AC1 SLP128
  • 180000Z 25010KT 15SM FEW080 18/05 A2988 RMK AC1 SLP118

TAF TAF CYZX
Valid from the 18 at 00:00 until the 19 at 00:00 UTC


172339Z 1800/1824 25015KT P6SM FEW080
FM180500 22005KT P6SM SKC
FM181400 24012KT P6SM FEW060 FEW250
BECMG 1816/1818 29012KT
BECMG 1822/1824 23008KT RMK NXT FCST BY 180600Z
CZQM FIR / North America



MET'MAP, your aeronautical weather chart ! - Copyright ORBIFLY December 2007 - Disclaimer

ORBIFLY MET'MAP TEAM :

Programming & Development : Alexandra Zaïnal
Concept & original design : Baudouin d'Aumeries
Assistance for programming : Marc-Olivier Méhu
Technical & hardware support : Manuel Goepfert

Contact : metmap@orbifly.com




SOURCES & CREDITS :

   NOAA